sensor_id;sensor_type;location;lat;lon;timestamp;pressure;altitude;pressure_sealevel;temperature;humidity
13434;BME280;6789;47.678;9.158;2022-11-12T00:02:28;98399.53;;;8.26;100.00
13434;BME280;6789;47.678;9.158;2022-11-12T00:07:42;98399.81;;;8.31;100.00
13434;BME280;6789;47.678;9.158;2022-11-12T00:13:26;98403.75;;;8.35;100.00
13434;BME280;6789;47.678;9.158;2022-11-12T00:29:42;98396.09;;;8.34;100.00
13434;BME280;6789;47.678;9.158;2022-11-12T00:34:58;98392.63;;;8.41;100.00
13434;BME280;6789;47.678;9.158;2022-11-12T00:40:26;98393.41;;;8.42;100.00
13434;BME280;6789;47.678;9.158;2022-11-12T00:45:48;98395.19;;;8.49;100.00
13434;BME280;6789;47.678;9.158;2022-11-12T00:51:25;98396.97;;;8.49;100.00
13434;BME280;6789;47.678;9.158;2022-11-12T00:56:32;98388.97;;;8.50;100.00
13434;BME280;6789;47.678;9.158;2022-11-12T01:01:26;98389.13;;;8.49;100.00
13434;BME280;6789;47.678;9.158;2022-11-12T01:06:22;98390.78;;;8.50;100.00
13434;BME280;6789;47.678;9.158;2022-11-12T01:11:40;98384.88;;;8.48;100.00
13434;BME280;6789;47.678;9.158;2022-11-12T01:17:00;98387.44;;;8.63;100.00
13434;BME280;6789;47.678;9.158;2022-11-12T01:21:51;98390.34;;;8.68;100.00
13434;BME280;6789;47.678;9.158;2022-11-12T01:26:43;98389.28;;;8.55;100.00
13434;BME280;6789;47.678;9.158;2022-11-12T01:31:37;98383.91;;;8.49;100.00
13434;BME280;6789;47.678;9.158;2022-11-12T01:36:35;98382.97;;;8.42;100.00
13434;BME280;6789;47.678;9.158;2022-11-12T01:42:04;98368.41;;;8.47;100.00
13434;BME280;6789;47.678;9.158;2022-11-12T01:47:31;98361.72;;;8.45;100.00
13434;BME280;6789;47.678;9.158;2022-11-12T01:52:39;98349.47;;;8.37;100.00
13434;BME280;6789;47.678;9.158;2022-11-12T01:57:44;98356.50;;;8.45;100.00
13434;BME280;6789;47.678;9.158;2022-11-12T02:03:30;98356.81;;;8.42;100.00
13434;BME280;6789;47.678;9.158;2022-11-12T02:08:47;98356.69;;;8.35;100.00
13434;BME280;6789;47.678;9.158;2022-11-12T02:13:41;98356.34;;;8.38;100.00
13434;BME280;6789;47.678;9.158;2022-11-12T02:18:48;98353.91;;;8.37;100.00
13434;BME280;6789;47.678;9.158;2022-11-12T02:23:40;98351.00;;;8.32;100.00
13434;BME280;6789;47.678;9.158;2022-11-12T02:28:47;98347.34;;;8.41;100.00
13434;BME280;6789;47.678;9.158;2022-11-12T02:33:39;98353.59;;;8.40;100.00
13434;BME280;6789;47.678;9.158;2022-11-12T02:38:31;98355.84;;;8.43;100.00
13434;BME280;6789;47.678;9.158;2022-11-12T02:43:23;98351.28;;;8.45;100.00
13434;BME280;6789;47.678;9.158;2022-11-12T02:48:15;98353.53;;;8.48;100.00
13434;BME280;6789;47.678;9.158;2022-11-12T02:53:15;98351.75;;;8.48;100.00
13434;BME280;6789;47.678;9.158;2022-11-12T02:58:07;98350.41;;;8.52;100.00
13434;BME280;6789;47.678;9.158;2022-11-12T03:02:59;98340.09;;;8.58;100.00
13434;BME280;6789;47.678;9.158;2022-11-12T03:07:59;98338.47;;;8.57;100.00
13434;BME280;6789;47.678;9.158;2022-11-12T03:12:52;98335.66;;;8.59;100.00
13434;BME280;6789;47.678;9.158;2022-11-12T03:17:44;98340.88;;;8.59;100.00
13434;BME280;6789;47.678;9.158;2022-11-12T03:22:37;98349.91;;;8.56;100.00
13434;BME280;6789;47.678;9.158;2022-11-12T03:27:29;98331.78;;;8.55;100.00
13434;BME280;6789;47.678;9.158;2022-11-12T03:32:20;98329.31;;;8.53;100.00
13434;BME280;6789;47.678;9.158;2022-11-12T03:37:12;98329.97;;;8.55;100.00
13434;BME280;6789;47.678;9.158;2022-11-12T03:42:04;98327.84;;;8.51;100.00
13434;BME280;6789;47.678;9.158;2022-11-12T03:46:56;98330.94;;;8.54;100.00
13434;BME280;6789;47.678;9.158;2022-11-12T03:51:48;98332.09;;;8.52;100.00
13434;BME280;6789;47.678;9.158;2022-11-12T03:56:39;98334.06;;;8.50;100.00
13434;BME280;6789;47.678;9.158;2022-11-12T04:01:32;98342.44;;;8.46;100.00
13434;BME280;6789;47.678;9.158;2022-11-12T04:06:24;98352.38;;;8.50;100.00
13434;BME280;6789;47.678;9.158;2022-11-12T04:11:34;98354.84;;;8.44;100.00
13434;BME280;6789;47.678;9.158;2022-11-12T04:16:26;98346.06;;;8.37;100.00
13434;BME280;6789;47.678;9.158;2022-11-12T04:21:49;98329.72;;;8.35;100.00
13434;BME280;6789;47.678;9.158;2022-11-12T04:26:41;98316.41;;;8.22;100.00
13434;BME280;6789;47.678;9.158;2022-11-12T04:31:33;98313.81;;;8.14;100.00
13434;BME280;6789;47.678;9.158;2022-11-12T04:36:24;98311.53;;;8.19;100.00
13434;BME280;6789;47.678;9.158;2022-11-12T04:41:16;98308.56;;;8.22;100.00
13434;BME280;6789;47.678;9.158;2022-11-12T04:46:26;98300.66;;;8.38;100.00
13434;BME280;6789;47.678;9.158;2022-11-12T04:51:18;98305.06;;;8.37;100.00
13434;BME280;6789;47.678;9.158;2022-11-12T04:56:28;98303.97;;;8.32;100.00
13434;BME280;6789;47.678;9.158;2022-11-12T05:01:20;98309.50;;;8.29;100.00
13434;BME280;6789;47.678;9.158;2022-11-12T05:06:26;98310.34;;;8.29;100.00
13434;BME280;6789;47.678;9.158;2022-11-12T05:12:08;98308.53;;;8.30;100.00
13434;BME280;6789;47.678;9.158;2022-11-12T05:17:18;98305.22;;;8.36;100.00
13434;BME280;6789;47.678;9.158;2022-11-12T05:22:24;98309.31;;;8.38;100.00
13434;BME280;6789;47.678;9.158;2022-11-12T05:27:32;98309.31;;;8.38;100.00
13434;BME280;6789;47.678;9.158;2022-11-12T05:32:45;98314.63;;;8.22;100.00
13434;BME280;6789;47.678;9.158;2022-11-12T05:37:53;98317.06;;;8.24;100.00
13434;BME280;6789;47.678;9.158;2022-11-12T05:42:59;98316.56;;;8.28;100.00
13434;BME280;6789;47.678;9.158;2022-11-12T05:48:06;98319.28;;;8.35;100.00
13434;BME280;6789;47.678;9.158;2022-11-12T05:53:13;98323.19;;;8.39;100.00
13434;BME280;6789;47.678;9.158;2022-11-12T05:58:24;98314.19;;;8.41;100.00
13434;BME280;6789;47.678;9.158;2022-11-12T06:03:46;98320.59;;;8.39;100.00
13434;BME280;6789;47.678;9.158;2022-11-12T06:08:56;98323.50;;;8.44;100.00
13434;BME280;6789;47.678;9.158;2022-11-12T06:14:04;98325.75;;;8.47;100.00
13434;BME280;6789;47.678;9.158;2022-11-12T06:19:11;98328.72;;;8.44;100.00
13434;BME280;6789;47.678;9.158;2022-11-12T06:24:20;98327.28;;;8.41;100.00
13434;BME280;6789;47.678;9.158;2022-11-12T06:29:27;98343.75;;;8.42;100.00
13434;BME280;6789;47.678;9.158;2022-11-12T06:34:34;98333.94;;;8.44;100.00
13434;BME280;6789;47.678;9.158;2022-11-12T06:39:51;98345.56;;;8.41;100.00
13434;BME280;6789;47.678;9.158;2022-11-12T06:44:57;98341.66;;;8.37;100.00
13434;BME280;6789;47.678;9.158;2022-11-12T06:50:04;98341.81;;;8.36;100.00
13434;BME280;6789;47.678;9.158;2022-11-12T06:55:11;98346.28;;;8.27;100.00
13434;BME280;6789;47.678;9.158;2022-11-12T07:00:19;98345.63;;;8.25;100.00
13434;BME280;6789;47.678;9.158;2022-11-12T07:05:27;98345.00;;;8.23;100.00
13434;BME280;6789;47.678;9.158;2022-11-12T07:10:46;98350.03;;;8.25;100.00
13434;BME280;6789;47.678;9.158;2022-11-12T07:16:11;98328.47;;;8.31;100.00
13434;BME280;6789;47.678;9.158;2022-11-12T07:21:37;98328.94;;;8.34;100.00
13434;BME280;6789;47.678;9.158;2022-11-12T07:27:11;98336.09;;;8.40;100.00
13434;BME280;6789;47.678;9.158;2022-11-12T07:32:17;98326.13;;;8.36;100.00
13434;BME280;6789;47.678;9.158;2022-11-12T07:37:23;98332.81;;;8.38;100.00
13434;BME280;6789;47.678;9.158;2022-11-12T07:42:33;98327.91;;;8.43;100.00
13434;BME280;6789;47.678;9.158;2022-11-12T07:47:30;98341.75;;;8.52;100.00
13434;BME280;6789;47.678;9.158;2022-11-12T07:52:36;98335.84;;;8.57;100.00
13434;BME280;6789;47.678;9.158;2022-11-12T07:58:00;98339.41;;;8.64;100.00
13434;BME280;6789;47.678;9.158;2022-11-12T08:03:17;98329.78;;;8.57;100.00
13434;BME280;6789;47.678;9.158;2022-11-12T08:08:23;98341.06;;;8.57;100.00
13434;BME280;6789;47.678;9.158;2022-11-12T08:13:29;98349.16;;;8.40;100.00
13434;BME280;6789;47.678;9.158;2022-11-12T08:18:36;98343.13;;;8.40;100.00
13434;BME280;6789;47.678;9.158;2022-11-12T08:24:00;98349.28;;;8.47;100.00
13434;BME280;6789;47.678;9.158;2022-11-12T08:29:14;98347.41;;;8.33;100.00
13434;BME280;6789;47.678;9.158;2022-11-12T08:34:41;98356.28;;;8.16;100.00
13434;BME280;6789;47.678;9.158;2022-11-12T08:39:49;98348.28;;;8.17;100.00
13434;BME280;6789;47.678;9.158;2022-11-12T08:45:07;98347.88;;;8.36;100.00
13434;BME280;6789;47.678;9.158;2022-11-12T08:50:18;98353.03;;;8.06;100.00
13434;BME280;6789;47.678;9.158;2022-11-12T08:55:30;98355.53;;;7.91;100.00
13434;BME280;6789;47.678;9.158;2022-11-12T09:00:43;98346.16;;;8.13;100.00
13434;BME280;6789;47.678;9.158;2022-11-12T09:05:50;98354.84;;;8.05;100.00
13434;BME280;6789;47.678;9.158;2022-11-12T09:10:58;98342.53;;;8.22;100.00
13434;BME280;6789;47.678;9.158;2022-11-12T09:16:09;98340.59;;;8.16;100.00
13434;BME280;6789;47.678;9.158;2022-11-12T09:21:15;98350.25;;;8.15;100.00
13434;BME280;6789;47.678;9.158;2022-11-12T09:26:25;98347.13;;;8.20;100.00
13434;BME280;6789;47.678;9.158;2022-11-12T09:31:42;98358.22;;;8.22;100.00
13434;BME280;6789;47.678;9.158;2022-11-12T09:36:53;98361.28;;;8.33;100.00
13434;BME280;6789;47.678;9.158;2022-11-12T09:42:23;98352.63;;;8.33;100.00
13434;BME280;6789;47.678;9.158;2022-11-12T09:47:50;98354.50;;;8.47;100.00
13434;BME280;6789;47.678;9.158;2022-11-12T09:54:29;98359.31;;;8.65;100.00
13434;BME280;6789;47.678;9.158;2022-11-12T09:59:11;98351.38;;;8.81;100.00
13434;BME280;6789;47.678;9.158;2022-11-12T10:10:41;98354.69;;;8.75;100.00
13434;BME280;6789;47.678;9.158;2022-11-12T10:27:46;98335.44;;;8.68;100.00
13434;BME280;6789;47.678;9.158;2022-11-12T10:32:53;98321.25;;;8.85;100.00
13434;BME280;6789;47.678;9.158;2022-11-12T10:38:04;98318.88;;;8.98;100.00
13434;BME280;6789;47.678;9.158;2022-11-12T10:48:25;98312.47;;;9.23;100.00
13434;BME280;6789;47.678;9.158;2022-11-12T10:53:41;98300.56;;;9.35;100.00
13434;BME280;6789;47.678;9.158;2022-11-12T10:59:23;98301.41;;;9.50;100.00
13434;BME280;6789;47.678;9.158;2022-11-12T11:04:44;98304.75;;;9.44;100.00
13434;BME280;6789;47.678;9.158;2022-11-12T11:09:56;98284.41;;;9.46;100.00
13434;BME280;6789;47.678;9.158;2022-11-12T11:15:22;98279.09;;;9.54;100.00
13434;BME280;6789;47.678;9.158;2022-11-12T11:20:55;98283.34;;;9.55;100.00
13434;BME280;6789;47.678;9.158;2022-11-12T11:26:53;98283.91;;;9.65;100.00
13434;BME280;6789;47.678;9.158;2022-11-12T11:55:42;98260.06;;;9.45;100.00
13434;BME280;6789;47.678;9.158;2022-11-12T12:01:13;98256.63;;;9.45;100.00
13434;BME280;6789;47.678;9.158;2022-11-12T12:08:20;98247.06;;;9.66;100.00
13434;BME280;6789;47.678;9.158;2022-11-12T12:13:24;98234.03;;;9.73;100.00
13434;BME280;6789;47.678;9.158;2022-11-12T12:19:32;98236.66;;;9.73;100.00
13434;BME280;6789;47.678;9.158;2022-11-12T12:24:17;98233.56;;;9.84;100.00
13434;BME280;6789;47.678;9.158;2022-11-12T12:29:39;98222.09;;;9.99;100.00
13434;BME280;6789;47.678;9.158;2022-11-12T12:35:31;98223.47;;;9.81;100.00
13434;BME280;6789;47.678;9.158;2022-11-12T12:46:28;98214.25;;;9.85;100.00
13434;BME280;6789;47.678;9.158;2022-11-12T12:51:46;98208.06;;;9.57;100.00
13434;BME280;6789;47.678;9.158;2022-11-12T12:57:57;98201.28;;;9.33;100.00
13434;BME280;6789;47.678;9.158;2022-11-12T13:02:58;98197.69;;;9.34;100.00
13434;BME280;6789;47.678;9.158;2022-11-12T13:08:25;98181.78;;;9.07;100.00
13434;BME280;6789;47.678;9.158;2022-11-12T13:13:49;98186.03;;;9.37;100.00
13434;BME280;6789;47.678;9.158;2022-11-12T13:19:08;98179.16;;;9.07;100.00
13434;BME280;6789;47.678;9.158;2022-11-12T13:24:16;98175.09;;;9.05;100.00
13434;BME280;6789;47.678;9.158;2022-11-12T13:35:26;98169.75;;;9.27;100.00
13434;BME280;6789;47.678;9.158;2022-11-12T13:46:30;98171.50;;;9.20;100.00
13434;BME280;6789;47.678;9.158;2022-11-12T13:51:38;98167.53;;;9.24;100.00
13434;BME280;6789;47.678;9.158;2022-11-12T14:02:27;98166.34;;;9.26;100.00
13434;BME280;6789;47.678;9.158;2022-11-12T14:07:53;98160.31;;;9.40;100.00
13434;BME280;6789;47.678;9.158;2022-11-12T14:13:52;98153.63;;;9.38;100.00
13434;BME280;6789;47.678;9.158;2022-11-12T14:19:53;98162.28;;;9.24;100.00
13434;BME280;6789;47.678;9.158;2022-11-12T14:25:02;98165.47;;;8.68;100.00
13434;BME280;6789;47.678;9.158;2022-11-12T14:30:29;98158.84;;;8.58;100.00
13434;BME280;6789;47.678;9.158;2022-11-12T14:35:49;98157.25;;;8.71;100.00
13434;BME280;6789;47.678;9.158;2022-11-12T14:41:06;98161.03;;;8.69;100.00
13434;BME280;6789;47.678;9.158;2022-11-12T14:46:25;98151.75;;;8.66;100.00
13434;BME280;6789;47.678;9.158;2022-11-12T14:51:49;98160.75;;;8.64;100.00
13434;BME280;6789;47.678;9.158;2022-11-12T14:57:05;98143.41;;;8.49;100.00
13434;BME280;6789;47.678;9.158;2022-11-12T15:02:27;98141.06;;;8.53;100.00
13434;BME280;6789;47.678;9.158;2022-11-12T15:08:07;98127.03;;;8.54;100.00
13434;BME280;6789;47.678;9.158;2022-11-12T15:13:41;98122.00;;;8.67;100.00
13434;BME280;6789;47.678;9.158;2022-11-12T15:19:26;98118.47;;;8.60;100.00
13434;BME280;6789;47.678;9.158;2022-11-12T15:25:11;98119.38;;;8.53;100.00
13434;BME280;6789;47.678;9.158;2022-11-12T15:31:05;98119.25;;;8.47;100.00
13434;BME280;6789;47.678;9.158;2022-11-12T15:36:21;98122.06;;;8.59;100.00
13434;BME280;6789;47.678;9.158;2022-11-12T15:41:29;98123.50;;;8.62;100.00
13434;BME280;6789;47.678;9.158;2022-11-12T15:47:21;98111.34;;;8.54;100.00
13434;BME280;6789;47.678;9.158;2022-11-12T15:52:48;98089.09;;;8.58;100.00
13434;BME280;6789;47.678;9.158;2022-11-12T15:57:58;98097.94;;;8.57;100.00
13434;BME280;6789;47.678;9.158;2022-11-12T16:03:38;98087.38;;;8.65;100.00
13434;BME280;6789;47.678;9.158;2022-11-12T16:08:35;98094.06;;;8.82;100.00
13434;BME280;6789;47.678;9.158;2022-11-12T16:13:45;98084.59;;;8.67;100.00
13434;BME280;6789;47.678;9.158;2022-11-12T16:19:00;98087.75;;;8.62;100.00
13434;BME280;6789;47.678;9.158;2022-11-12T16:24:07;98053.09;;;8.60;100.00
13434;BME280;6789;47.678;9.158;2022-11-12T16:29:33;98054.19;;;8.66;100.00
13434;BME280;6789;47.678;9.158;2022-11-12T16:34:41;98065.47;;;8.66;100.00
13434;BME280;6789;47.678;9.158;2022-11-12T16:39:50;98079.25;;;8.60;100.00
13434;BME280;6789;47.678;9.158;2022-11-12T16:51:49;98076.09;;;8.65;100.00
13434;BME280;6789;47.678;9.158;2022-11-12T16:57:02;98067.09;;;8.67;100.00
13434;BME280;6789;47.678;9.158;2022-11-12T17:02:12;98070.16;;;8.71;100.00
13434;BME280;6789;47.678;9.158;2022-11-12T17:07:20;98070.81;;;8.73;100.00
13434;BME280;6789;47.678;9.158;2022-11-12T17:12:40;98056.56;;;8.75;100.00
13434;BME280;6789;47.678;9.158;2022-11-12T17:17:54;98060.81;;;8.76;100.00
13434;BME280;6789;47.678;9.158;2022-11-12T17:23:02;98062.31;;;8.85;100.00
13434;BME280;6789;47.678;9.158;2022-11-12T17:28:18;98051.84;;;8.85;100.00
13434;BME280;6789;47.678;9.158;2022-11-12T17:33:24;98053.56;;;8.78;100.00
13434;BME280;6789;47.678;9.158;2022-11-12T17:38:31;98045.28;;;8.89;100.00
13434;BME280;6789;47.678;9.158;2022-11-12T17:43:37;98041.78;;;8.82;100.00
13434;BME280;6789;47.678;9.158;2022-11-12T17:48:47;98035.34;;;8.85;100.00
13434;BME280;6789;47.678;9.158;2022-11-12T17:53:54;98034.38;;;8.86;100.00
13434;BME280;6789;47.678;9.158;2022-11-12T17:59:03;98026.69;;;8.84;100.00
13434;BME280;6789;47.678;9.158;2022-11-12T18:04:10;98032.75;;;8.85;100.00
13434;BME280;6789;47.678;9.158;2022-11-12T18:09:20;98022.47;;;8.83;100.00
13434;BME280;6789;47.678;9.158;2022-11-12T18:14:26;98017.31;;;8.90;100.00
13434;BME280;6789;47.678;9.158;2022-11-12T18:19:33;98017.13;;;8.91;100.00
13434;BME280;6789;47.678;9.158;2022-11-12T18:24:39;98015.69;;;8.89;100.00
13434;BME280;6789;47.678;9.158;2022-11-12T18:29:56;98007.66;;;8.90;100.00
13434;BME280;6789;47.678;9.158;2022-11-12T18:35:02;97998.56;;;8.86;100.00
13434;BME280;6789;47.678;9.158;2022-11-12T18:40:10;98006.66;;;8.91;100.00
13434;BME280;6789;47.678;9.158;2022-11-12T18:45:27;98006.06;;;8.89;100.00
13434;BME280;6789;47.678;9.158;2022-11-12T18:50:35;97991.59;;;8.93;100.00
13434;BME280;6789;47.678;9.158;2022-11-12T18:55:41;97977.00;;;8.84;100.00
13434;BME280;6789;47.678;9.158;2022-11-12T19:00:48;97974.91;;;8.94;100.00
13434;BME280;6789;47.678;9.158;2022-11-12T19:06:01;97970.97;;;8.84;100.00
13434;BME280;6789;47.678;9.158;2022-11-12T19:11:16;97958.69;;;8.84;100.00
13434;BME280;6789;47.678;9.158;2022-11-12T19:16:27;97970.41;;;8.88;100.00
13434;BME280;6789;47.678;9.158;2022-11-12T19:21:39;97970.50;;;8.80;100.00
13434;BME280;6789;47.678;9.158;2022-11-12T19:26:48;97970.09;;;8.62;100.00
13434;BME280;6789;47.678;9.158;2022-11-12T19:31:56;97968.47;;;8.47;100.00
13434;BME280;6789;47.678;9.158;2022-11-12T19:37:02;97956.59;;;8.30;100.00
13434;BME280;6789;47.678;9.158;2022-11-12T19:42:08;97949.09;;;8.27;100.00
13434;BME280;6789;47.678;9.158;2022-11-12T19:47:18;97939.09;;;8.31;100.00
13434;BME280;6789;47.678;9.158;2022-11-12T19:52:26;97947.19;;;8.36;100.00
13434;BME280;6789;47.678;9.158;2022-11-12T19:57:34;97948.00;;;8.22;100.00
13434;BME280;6789;47.678;9.158;2022-11-12T20:02:40;97944.59;;;8.21;100.00
13434;BME280;6789;47.678;9.158;2022-11-12T20:07:49;97938.38;;;8.22;100.00
13434;BME280;6789;47.678;9.158;2022-11-12T20:14:01;97927.91;;;8.37;100.00
13434;BME280;6789;47.678;9.158;2022-11-12T20:19:37;97918.53;;;8.42;100.00
13434;BME280;6789;47.678;9.158;2022-11-12T20:24:55;97924.03;;;8.47;100.00
13434;BME280;6789;47.678;9.158;2022-11-12T20:30:03;97910.72;;;8.28;100.00
13434;BME280;6789;47.678;9.158;2022-11-12T20:35:09;97921.78;;;8.15;100.00
13434;BME280;6789;47.678;9.158;2022-11-12T20:40:16;97920.25;;;8.21;100.00
13434;BME280;6789;47.678;9.158;2022-11-12T20:45:37;97903.66;;;8.14;100.00
13434;BME280;6789;47.678;9.158;2022-11-12T20:51:15;97899.22;;;8.00;100.00
13434;BME280;6789;47.678;9.158;2022-11-12T20:56:25;97896.28;;;8.03;100.00
13434;BME280;6789;47.678;9.158;2022-11-12T21:01:32;97883.16;;;7.74;100.00
13434;BME280;6789;47.678;9.158;2022-11-12T21:06:49;97877.88;;;7.82;100.00
13434;BME280;6789;47.678;9.158;2022-11-12T21:12:24;97877.31;;;7.72;100.00
13434;BME280;6789;47.678;9.158;2022-11-12T21:18:17;97863.84;;;7.83;100.00
13434;BME280;6789;47.678;9.158;2022-11-12T21:23:39;97859.31;;;7.63;100.00
13434;BME280;6789;47.678;9.158;2022-11-12T21:29:54;97849.91;;;7.39;100.00
13434;BME280;6789;47.678;9.158;2022-11-12T21:35:01;97846.66;;;7.37;100.00
13434;BME280;6789;47.678;9.158;2022-11-12T21:40:17;97841.88;;;7.26;100.00
13434;BME280;6789;47.678;9.158;2022-11-12T21:45:25;97832.75;;;7.22;100.00
13434;BME280;6789;47.678;9.158;2022-11-12T21:50:40;97821.72;;;7.20;100.00
13434;BME280;6789;47.678;9.158;2022-11-12T21:56:07;97823.63;;;7.26;100.00
13434;BME280;6789;47.678;9.158;2022-11-12T22:02:04;97821.72;;;7.20;100.00
13434;BME280;6789;47.678;9.158;2022-11-12T22:07:46;97818.41;;;7.04;100.00
13434;BME280;6789;47.678;9.158;2022-11-12T22:13:58;97812.75;;;7.01;100.00
13434;BME280;6789;47.678;9.158;2022-11-12T22:20:00;97806.59;;;6.94;100.00
13434;BME280;6789;47.678;9.158;2022-11-12T22:25:35;97798.97;;;6.92;100.00
13434;BME280;6789;47.678;9.158;2022-11-12T22:31:22;97787.72;;;6.92;100.00
13434;BME280;6789;47.678;9.158;2022-11-12T22:37:06;97784.13;;;6.93;100.00
13434;BME280;6789;47.678;9.158;2022-11-12T22:43:03;97778.34;;;6.83;100.00
13434;BME280;6789;47.678;9.158;2022-11-12T22:48:36;97761.53;;;6.85;100.00
13434;BME280;6789;47.678;9.158;2022-11-12T22:54:17;97768.88;;;6.67;100.00
13434;BME280;6789;47.678;9.158;2022-11-12T22:59:37;97761.13;;;6.74;100.00
13434;BME280;6789;47.678;9.158;2022-11-12T23:05:54;97753.44;;;6.80;100.00
13434;BME280;6789;47.678;9.158;2022-11-12T23:22:37;97739.22;;;6.68;100.00
13434;BME280;6789;47.678;9.158;2022-11-12T23:28:10;97737.91;;;6.64;100.00
13434;BME280;6789;47.678;9.158;2022-11-12T23:39:15;97734.38;;;6.57;100.00
13434;BME280;6789;47.678;9.158;2022-11-12T23:50:46;97722.66;;;6.39;100.00
13434;BME280;6789;47.678;9.158;2022-11-12T23:56:49;97715.03;;;6.38;100.00
